Time;durP1;ratioP1;P1;durP2;ratioP2;P2;SDS_P1;SDS_P2;PMS_P1;PMS_P2;Temp;Humidity;BMP_temperature;BMP_pressure;BME280_temperature;BME280_humidity;BME280_pressure;Samples;Min_cycle;Max_cycle;Signal;HPM_P1;HPM_P2
2023/11/05 00:01:50;;;;;;;64.50;47.60;;;;;;;3.51;100.00;96408.20;109755;1249;59774;-66
2023/11/05 00:04:17;;;;;;;64.30;48.20;;;;;;;3.54;100.00;96401.67;109781;1249;59900;-66
2023/11/05 00:06:44;;;;;;;74.00;59.30;;;;;;;3.55;100.00;96399.35;109774;1250;66895;-66
2023/11/05 00:09:10;;;;;;;75.60;61.30;;;;;;;3.53;100.00;96400.52;109805;1249;60688;-66
2023/11/05 00:11:37;;;;;;;76.40;56.40;;;;;;;3.50;100.00;96395.44;109784;1249;64260;-66
2023/11/05 00:14:03;;;;;;;70.20;54.30;;;;;;;3.48;100.00;96383.52;109807;1250;59737;-66
2023/11/05 00:16:30;;;;;;;73.30;54.90;;;;;;;3.46;100.00;96376.99;109827;1249;59989;-66
2023/11/05 00:18:56;;;;;;;67.10;51.40;;;;;;;3.45;100.00;96378.12;109607;1249;59814;-66
2023/11/05 00:21:23;;;;;;;64.00;49.80;;;;;;;3.46;100.00;96376.66;109803;1249;59755;-66
2023/11/05 00:23:49;;;;;;;61.70;47.40;;;;;;;3.46;100.00;96360.86;109809;1249;60576;-67
2023/11/05 00:26:16;;;;;;;64.20;45.80;;;;;;;3.47;100.00;96355.69;109754;1249;59739;-67
2023/11/05 00:28:42;;;;;;;65.90;46.50;;;;;;;3.48;100.00;96352.44;109792;1248;59834;-67
2023/11/05 00:31:09;;;;;;;65.10;47.80;;;;;;;3.51;100.00;96356.77;109818;1250;60099;-67
2023/11/05 00:33:36;;;;;;;64.20;46.10;;;;;;;3.53;100.00;96353.30;109841;1249;59765;-67
2023/11/05 00:36:03;;;;;;;67.50;49.90;;;;;;;3.54;100.00;96350.27;109019;1250;1002957;-67
2023/11/05 00:38:29;;;;;;;61.90;47.80;;;;;;;3.54;100.00;96354.82;109787;1249;60026;-67
2023/11/05 00:40:56;;;;;;;64.30;47.40;;;;;;;3.55;100.00;96350.86;109828;1249;60168;-66
2023/11/05 00:43:22;;;;;;;62.60;47.30;;;;;;;3.60;100.00;96345.33;109824;1250;59862;-67
2023/11/05 00:45:48;;;;;;;61.70;48.40;;;;;;;3.66;100.00;96333.61;109791;1249;60178;-67
2023/11/05 00:48:15;;;;;;;67.40;48.40;;;;;;;3.72;100.00;96319.30;109432;1249;59895;-68
2023/11/05 00:50:41;;;;;;;56.60;44.60;;;;;;;3.77;100.00;96298.65;109811;1249;59842;-66
2023/11/05 00:53:08;;;;;;;56.10;44.10;;;;;;;3.83;100.00;96290.76;109817;1249;60168;-65
2023/11/05 00:55:34;;;;;;;56.00;44.00;;;;;;;3.89;100.00;96302.61;109839;1249;59831;-65
2023/11/05 00:58:01;;;;;;;60.30;44.10;;;;;;;3.93;100.00;96310.52;109840;1251;59799;-66
2023/11/05 01:00:27;;;;;;;53.60;40.50;;;;;;;3.97;100.00;96310.35;109058;1249;1002502;-66
2023/11/05 01:02:54;;;;;;;54.90;40.90;;;;;;;4.02;100.00;96313.31;109820;1249;59827;-66
2023/11/05 01:05:21;;;;;;;54.70;40.60;;;;;;;4.07;100.00;96314.62;109852;1249;59762;-66
2023/11/05 01:07:47;;;;;;;49.10;40.30;;;;;;;4.14;100.00;96308.77;109039;1250;1002239;-66
2023/11/05 01:10:14;;;;;;;55.60;40.90;;;;;;;4.18;100.00;96308.89;109421;1251;59799;-66
2023/11/05 01:12:40;;;;;;;55.00;40.60;;;;;;;4.24;100.00;96312.66;109817;1249;59734;-66
2023/11/05 01:15:07;;;;;;;50.80;40.00;;;;;;;4.29;100.00;96315.09;109852;1249;60027;-66
2023/11/05 01:17:33;;;;;;;52.30;40.80;;;;;;;4.33;100.00;96308.23;109785;1249;60004;-66
2023/11/05 01:20:00;;;;;;;57.70;41.40;;;;;;;4.36;100.00;96306.23;109830;1249;65611;-65
2023/11/05 01:22:26;;;;;;;53.40;40.90;;;;;;;4.39;100.00;96309.98;109821;1249;60041;-67
2023/11/05 01:24:53;;;;;;;56.70;42.80;;;;;;;4.41;100.00;96307.86;109784;1250;60045;-66
2023/11/05 01:27:19;;;;;;;52.70;41.40;;;;;;;4.45;100.00;96310.40;109789;1250;59766;-66
2023/11/05 01:29:46;;;;;;;55.90;42.90;;;;;;;4.48;100.00;96314.34;109859;1249;59819;-67
2023/11/05 01:32:12;;;;;;;48.90;37.90;;;;;;;4.50;100.00;96314.84;109800;1249;60065;-66
2023/11/05 01:34:38;;;;;;;46.70;36.10;;;;;;;4.53;100.00;96319.17;109833;1249;59840;-66
2023/11/05 01:37:05;;;;;;;45.40;35.00;;;;;;;4.57;100.00;96318.80;109806;1250;59910;-67
2023/11/05 01:39:32;;;;;;;46.70;36.10;;;;;;;4.61;100.00;96309.30;109796;1249;59838;-66
2023/11/05 01:41:58;;;;;;;45.30;35.40;;;;;;;4.65;100.00;96301.59;109801;1250;59823;-66
2023/11/05 01:44:24;;;;;;;41.40;34.30;;;;;;;4.68;100.00;96292.05;109807;1249;60234;-66
2023/11/05 01:46:52;;;;;;;44.50;33.40;;;;;;;4.71;100.00;96280.17;109863;1249;59982;-67
2023/11/05 01:49:18;;;;;;;47.10;36.60;;;;;;;4.75;100.00;96280.55;109795;1249;63725;-67
2023/11/05 01:51:45;;;;;;;46.00;34.80;;;;;;;4.79;100.00;96278.70;109533;1250;60235;-67
2023/11/05 01:54:12;;;;;;;42.40;33.10;;;;;;;4.83;100.00;96282.98;109582;1250;59966;-66
2023/11/05 01:56:39;;;;;;;42.50;32.70;;;;;;;4.87;100.00;96283.87;109808;1250;66597;-67
2023/11/05 01:59:06;;;;;;;45.10;34.60;;;;;;;4.92;100.00;96279.61;109838;1249;60541;-66
2023/11/05 02:01:33;;;;;;;43.50;34.50;;;;;;;4.94;100.00;96270.55;109805;1249;62551;-66
2023/11/05 02:03:59;;;;;;;42.50;34.10;;;;;;;4.98;100.00;96267.82;109819;1249;59954;-67
2023/11/05 02:06:26;;;;;;;43.50;34.30;;;;;;;5.00;100.00;96267.23;109859;1249;59833;-67
2023/11/05 02:08:52;;;;;;;44.30;32.70;;;;;;;5.03;100.00;96265.76;109845;1249;68032;-67
2023/11/05 02:11:19;;;;;;;43.80;33.20;;;;;;;5.07;100.00;96260.14;109859;1249;60046;-67
2023/11/05 02:13:51;;;;;;;41.30;31.60;;;;;;;5.11;100.00;96262.05;109852;1250;65011;-66
2023/11/05 02:16:19;;;;;;;41.90;31.80;;;;;;;5.14;100.00;96253.67;109817;1249;60125;-66
2023/11/05 02:18:49;;;;;;;40.20;32.60;;;;;;;5.16;100.00;96249.96;109556;1250;59911;-66
2023/11/05 02:22:01;;;;;;;41.20;33.50;;;;;;;5.17;100.00;96247.04;109576;1251;67253;-66
2023/11/05 02:24:27;;;;;;;42.20;32.10;;;;;;;5.18;100.00;96256.30;109000;1257;59856;-66
2023/11/05 02:27:03;;;;;;;42.80;34.10;;;;;;;5.19;100.00;96265.71;108971;1257;62879;-66
2023/11/05 02:29:29;;;;;;;42.20;35.70;;;;;;;5.20;100.00;96266.86;108967;1258;60103;-66
2023/11/05 02:31:55;;;;;;;41.20;33.80;;;;;;;5.22;100.00;96272.54;108982;1257;59945;-66
2023/11/05 02:34:22;;;;;;;43.10;34.70;;;;;;;5.23;100.00;96280.31;108834;1258;59896;-67
2023/11/05 02:36:48;;;;;;;41.90;33.90;;;;;;;5.23;100.00;96279.23;109025;1257;59992;-67
2023/11/05 02:39:15;;;;;;;42.80;36.20;;;;;;;5.25;100.00;96285.13;108965;1257;59949;-66
2023/11/05 02:41:44;;;;;;;44.60;36.70;;;;;;;5.26;100.00;96289.77;108999;1257;59938;-66
2023/11/05 02:44:11;;;;;;;44.00;33.20;;;;;;;5.28;100.00;96290.09;108976;1257;59855;-66
2023/11/05 02:46:37;;;;;;;46.20;37.10;;;;;;;5.29;100.00;96296.16;108987;1257;66885;-66
2023/11/05 02:49:03;;;;;;;50.80;40.80;;;;;;;5.29;100.00;96292.08;108996;1257;60056;-66
2023/11/05 02:51:30;;;;;;;56.90;45.30;;;;;;;5.31;100.00;96284.61;108986;1257;59872;-66
2023/11/05 02:53:56;;;;;;;51.20;45.60;;;;;;;5.32;100.00;96286.27;108961;1258;59845;-66
2023/11/05 02:56:23;;;;;;;54.20;45.30;;;;;;;5.32;100.00;96284.85;108986;1257;59848;-67
2023/11/05 02:58:50;;;;;;;47.80;38.50;;;;;;;5.32;100.00;96282.53;108960;1257;59985;-66
2023/11/05 03:01:27;;;;;;;49.00;39.20;;;;;;;5.34;100.00;96272.67;109550;1250;61002;-67
2023/11/05 03:03:53;;;;;;;45.60;36.10;;;;;;;5.38;100.00;96250.67;109807;1249;73882;-66
2023/11/05 03:06:20;;;;;;;43.50;36.20;;;;;;;5.41;100.00;96236.13;109830;1250;59735;-66
2023/11/05 03:08:46;;;;;;;42.60;33.80;;;;;;;5.45;100.00;96227.51;109861;1250;60057;-66
2023/11/05 03:11:13;;;;;;;44.10;35.30;;;;;;;5.49;100.00;96225.52;109855;1250;60352;-66
2023/11/05 03:13:39;;;;;;;46.10;37.40;;;;;;;5.54;100.00;96228.13;109845;1250;60196;-66
2023/11/05 03:16:08;;;;;;;38.80;34.20;;;;;;;5.57;100.00;96218.09;109855;1250;59870;-66
2023/11/05 03:18:34;;;;;;;41.20;33.30;;;;;;;5.60;100.00;96217.45;109879;1249;60062;-66
2023/11/05 03:21:01;;;;;;;45.70;37.20;;;;;;;5.64;100.00;96228.06;109837;1250;59782;-67
2023/11/05 03:23:27;;;;;;;42.30;35.10;;;;;;;5.66;100.00;96218.34;109863;1250;66721;-66
2023/11/05 03:25:54;;;;;;;43.50;36.40;;;;;;;5.68;100.00;96209.56;109814;1250;59749;-66
2023/11/05 03:28:20;;;;;;;45.60;38.90;;;;;;;5.69;100.00;96208.87;109845;1249;59792;-67
2023/11/05 03:30:47;;;;;;;53.90;40.20;;;;;;;5.70;100.00;96208.66;109871;1249;59907;-67
2023/11/05 03:33:13;;;;;;;44.40;38.50;;;;;;;5.70;100.00;96221.46;109868;1249;59963;-66
2023/11/05 03:35:40;;;;;;;47.10;41.10;;;;;;;5.70;100.00;96220.23;109365;1254;60604;-66
2023/11/05 03:38:06;;;;;;;50.40;41.20;;;;;;;5.70;100.00;96229.09;109348;1254;60077;-66
2023/11/05 03:40:33;;;;;;;50.60;43.40;;;;;;;5.70;100.00;96238.25;109321;1254;59863;-67
2023/11/05 03:42:59;;;;;;;49.50;40.50;;;;;;;5.70;100.00;96243.52;109225;1256;59787;-66
2023/11/05 03:45:26;;;;;;;52.90;40.90;;;;;;;5.70;100.00;96247.71;109245;1255;59901;-66
2023/11/05 03:47:52;;;;;;;53.00;42.70;;;;;;;5.70;100.00;96247.75;109246;1255;59827;-66
2023/11/05 03:50:18;;;;;;;44.70;39.40;;;;;;;5.71;100.00;96246.77;109273;1256;59975;-67
2023/11/05 03:52:45;;;;;;;44.80;39.40;;;;;;;5.72;100.00;96242.80;108955;1256;59811;-67
2023/11/05 03:55:11;;;;;;;49.30;39.10;;;;;;;5.72;100.00;96243.50;109208;1256;59975;-67
2023/11/05 03:57:38;;;;;;;47.00;37.90;;;;;;;5.72;100.00;96247.05;109233;1256;59901;-67
2023/11/05 04:00:05;;;;;;;44.80;36.70;;;;;;;5.71;100.00;96250.63;109241;1254;59856;-66
2023/11/05 04:02:32;;;;;;;47.20;35.40;;;;;;;5.71;100.00;96247.29;109303;1254;60433;-67
2023/11/05 04:04:59;;;;;;;44.40;34.40;;;;;;;5.71;100.00;96246.56;109281;1254;64074;-66
2023/11/05 04:07:25;;;;;;;43.60;37.70;;;;;;;5.73;100.00;96244.12;109616;1250;60032;-66
2023/11/05 04:09:52;;;;;;;42.70;37.00;;;;;;;5.76;100.00;96244.41;109716;1250;59721;-66
2023/11/05 04:12:18;;;;;;;45.70;36.20;;;;;;;5.80;100.00;96243.15;109648;1249;60086;-66
2023/11/05 04:14:45;;;;;;;45.20;36.60;;;;;;;5.83;100.00;96246.35;109699;1250;59934;-66
2023/11/05 04:17:12;;;;;;;41.00;35.40;;;;;;;5.87;100.00;96246.91;109651;1249;64158;-66
2023/11/05 04:19:39;;;;;;;42.90;36.10;;;;;;;5.91;100.00;96246.05;109661;1250;59825;-66
2023/11/05 04:22:05;;;;;;;46.70;36.20;;;;;;;5.94;100.00;96244.33;109620;1250;59670;-66
2023/11/05 04:24:32;;;;;;;51.80;43.90;;;;;;;5.98;100.00;96246.11;109695;1250;74575;-66
2023/11/05 04:26:58;;;;;;;47.80;41.30;;;;;;;6.00;100.00;96248.89;109642;1250;59803;-66
2023/11/05 04:29:24;;;;;;;45.40;38.00;;;;;;;6.03;100.00;96247.60;109681;1250;60012;-66
2023/11/05 04:31:52;;;;;;;44.00;37.70;;;;;;;6.05;100.00;96248.44;109497;1249;59985;-66
2023/11/05 04:34:19;;;;;;;42.30;34.60;;;;;;;6.07;100.00;96247.21;109712;1251;59757;-67
2023/11/05 04:36:45;;;;;;;44.50;35.50;;;;;;;6.10;100.00;96249.59;109661;1250;66486;-66
2023/11/05 04:39:12;;;;;;;44.50;38.50;;;;;;;6.12;100.00;96254.69;109661;1250;59766;-66
2023/11/05 04:41:38;;;;;;;43.10;38.20;;;;;;;6.14;100.00;96256.93;109666;1250;63738;-66
2023/11/05 04:44:05;;;;;;;44.80;39.10;;;;;;;6.17;100.00;96253.66;109671;1250;59807;-67
2023/11/05 04:46:38;;;;;;;41.20;36.70;;;;;;;6.21;100.00;96249.65;109706;1249;59778;-67
2023/11/05 04:49:05;;;;;;;39.50;34.20;;;;;;;6.23;100.00;96245.16;109697;1250;66839;-66
2023/11/05 04:51:31;;;;;;;39.40;33.30;;;;;;;6.26;100.00;96237.11;109685;1249;59823;-66
2023/11/05 04:53:58;;;;;;;42.70;33.90;;;;;;;6.31;100.00;96228.94;109674;1250;64572;-66
2023/11/05 04:56:24;;;;;;;41.60;35.80;;;;;;;6.35;100.00;96219.38;109691;1249;60025;-66
2023/11/05 04:58:52;;;;;;;42.80;33.90;;;;;;;6.39;100.00;96212.88;109442;1250;59851;-66
2023/11/05 05:01:19;;;;;;;39.40;33.70;;;;;;;6.42;100.00;96201.78;109705;1250;67055;-66
2023/11/05 05:03:45;;;;;;;47.40;37.90;;;;;;;6.46;100.00;96189.63;109664;1250;59808;-66
2023/11/05 05:06:12;;;;;;;55.20;45.10;;;;;;;6.48;100.00;96180.40;109692;1250;63829;-66
2023/11/05 05:08:38;;;;;;;46.90;40.80;;;;;;;6.50;100.00;96173.52;109691;1250;60148;-66
2023/11/05 05:11:05;;;;;;;44.60;39.10;;;;;;;6.52;100.00;96164.52;109717;1250;59735;-66
2023/11/05 05:13:31;;;;;;;43.70;39.10;;;;;;;6.52;100.00;96159.70;109684;1250;66804;-66
2023/11/05 05:15:58;;;;;;;33.00;29.50;;;;;;;6.53;100.00;96152.18;109721;1249;59784;-66
2023/11/05 05:18:24;;;;;;;33.40;27.00;;;;;;;6.55;100.00;96143.88;109533;1250;59893;-66
2023/11/05 05:20:51;;;;;;;43.70;39.00;;;;;;;6.59;100.00;96146.30;109647;1250;59864;-66
2023/11/05 05:23:18;;;;;;;26.80;24.00;;;;;;;6.63;100.00;96147.62;109582;1250;59722;-66
2023/11/05 05:25:45;;;;;;;25.20;22.40;;;;;;;6.64;100.00;96150.29;109687;1249;66572;-67
2023/11/05 05:28:11;;;;;;;23.60;19.70;;;;;;;6.65;100.00;96164.16;109690;1251;60181;-67
2023/11/05 05:30:37;;;;;;;22.40;18.80;;;;;;;6.65;100.00;96166.80;109681;1250;59939;-67
2023/11/05 05:33:04;;;;;;;19.90;17.20;;;;;;;6.66;100.00;96160.73;109654;1250;59740;-67
2023/11/05 05:35:31;;;;;;;17.30;15.50;;;;;;;6.67;100.00;96150.95;109708;1250;59903;-67
2023/11/05 05:37:57;;;;;;;15.00;13.50;;;;;;;6.70;100.00;96151.70;109674;1251;60150;-66
2023/11/05 05:40:24;;;;;;;13.20;10.30;;;;;;;6.73;100.00;96158.05;109704;1249;59742;-67
2023/11/05 05:42:50;;;;;;;11.40;9.30;;;;;;;6.77;100.00;96157.34;109685;1249;60024;-67
2023/11/05 05:45:17;;;;;;;10.30;8.10;;;;;;;6.81;100.00;96162.34;109691;1250;59854;-67
2023/11/05 05:47:44;;;;;;;13.20;10.80;;;;;;;6.88;100.00;96171.48;109700;1250;60039;-67
2023/11/05 05:50:11;;;;;;;14.60;10.90;;;;;;;6.93;100.00;96173.20;109737;1250;65572;-67
2023/11/05 05:52:37;;;;;;;10.30;8.70;;;;;;;6.99;100.00;96178.46;109736;1250;60137;-67
2023/11/05 05:55:04;;;;;;;11.00;7.90;;;;;;;7.04;100.00;96181.72;109662;1249;60010;-67
2023/11/05 05:57:31;;;;;;;10.50;8.30;;;;;;;7.08;100.00;96184.86;109658;1249;59821;-67
2023/11/05 05:59:58;;;;;;;12.50;9.30;;;;;;;7.12;100.00;96185.48;109734;1250;59861;-67
2023/11/05 06:02:24;;;;;;;17.30;12.10;;;;;;;7.17;100.00;96191.17;109707;1249;66825;-67
2023/11/05 06:04:51;;;;;;;14.70;10.80;;;;;;;7.23;100.00;96196.48;109461;1250;59838;-67
2023/11/05 06:07:17;;;;;;;13.30;10.10;;;;;;;7.29;100.00;96191.77;109695;1250;60145;-66
2023/11/05 06:09:44;;;;;;;12.70;9.60;;;;;;;7.34;100.00;96189.56;109693;1250;59729;-68
2023/11/05 06:12:10;;;;;;;10.60;7.80;;;;;;;7.38;100.00;96185.60;109717;1250;60030;-67
2023/11/05 06:14:37;;;;;;;12.70;9.50;;;;;;;7.44;100.00;96182.90;109689;1249;59995;-67
2023/11/05 06:17:03;;;;;;;14.90;10.50;;;;;;;7.51;100.00;96182.79;109542;1250;59821;-67
2023/11/05 06:19:30;;;;;;;14.50;12.30;;;;;;;7.56;100.00;96175.86;109687;1250;59891;-67
2023/11/05 06:21:56;;;;;;;14.40;12.60;;;;;;;7.59;100.00;96170.63;109667;1253;59837;-67
2023/11/05 06:24:22;;;;;;;14.60;11.30;;;;;;;7.62;100.00;96166.64;109746;1249;59710;-67
2023/11/05 06:26:49;;;;;;;13.30;11.60;;;;;;;7.65;100.00;96165.23;109727;1250;59734;-67
2023/11/05 06:29:15;;;;;;;11.60;10.20;;;;;;;7.69;100.00;96162.55;109710;1250;60166;-66
2023/11/05 06:31:42;;;;;;;13.60;12.20;;;;;;;7.74;100.00;96150.40;109690;1251;59929;-66
2023/11/05 06:34:08;;;;;;;16.90;15.20;;;;;;;7.80;100.00;96158.29;109723;1250;59868;-67
2023/11/05 06:36:57;;;;;;;18.50;16.50;;;;;;;7.83;100.00;96157.98;109669;1250;59999;-67
2023/11/05 06:39:24;;;;;;;22.10;18.40;;;;;;;7.85;100.00;96151.86;109537;1249;66687;-66
2023/11/05 06:41:51;;;;;;;22.00;17.20;;;;;;;7.88;100.00;96148.77;109683;1249;60961;-66
2023/11/05 06:44:17;;;;;;;18.60;16.60;;;;;;;7.92;100.00;96151.61;109338;1250;64532;-66
2023/11/05 06:46:43;;;;;;;20.60;18.40;;;;;;;7.94;100.00;96151.36;109536;1250;60297;-67
2023/11/05 06:49:10;;;;;;;23.90;19.60;;;;;;;7.96;100.00;96152.46;109426;1251;59802;-67
2023/11/05 06:51:37;;;;;;;20.40;18.30;;;;;;;7.96;100.00;96144.77;109706;1250;65676;-68
2023/11/05 06:54:03;;;;;;;18.70;16.00;;;;;;;7.98;100.00;96144.42;109678;1250;59978;-67
2023/11/05 06:56:30;;;;;;;15.00;12.60;;;;;;;8.00;100.00;96137.14;109697;1249;64071;-67
2023/11/05 06:58:56;;;;;;;14.30;12.80;;;;;;;8.02;100.00;96129.69;109661;1251;59841;-67
2023/11/05 07:01:24;;;;;;;28.30;23.20;;;;;;;8.05;100.00;96131.70;109716;1249;59862;-66
2023/11/05 07:03:51;;;;;;;28.10;24.20;;;;;;;8.07;100.00;96125.34;109685;1250;66879;-66
2023/11/05 07:06:17;;;;;;;24.20;21.60;;;;;;;8.08;100.00;96120.17;109688;1250;59918;-67
2023/11/05 07:08:44;;;;;;;26.60;23.00;;;;;;;8.11;100.00;96123.27;109683;1249;63755;-67
2023/11/05 07:11:10;;;;;;;21.10;18.80;;;;;;;8.14;100.00;96114.44;109660;1250;59724;-65
2023/11/05 07:13:37;;;;;;;21.30;18.20;;;;;;;8.18;100.00;96108.05;109694;1250;59841;-66
2023/11/05 07:16:04;;;;;;;17.30;15.40;;;;;;;8.22;100.00;96101.77;109661;1251;65167;-66
2023/11/05 07:18:30;;;;;;;18.50;15.90;;;;;;;8.28;100.00;96099.91;109689;1250;60113;-67
2023/11/05 07:20:57;;;;;;;27.00;24.10;;;;;;;8.34;100.00;96102.08;109678;1249;62853;-66
2023/11/05 07:23:23;;;;;;;21.00;18.90;;;;;;;8.41;100.00;96097.73;109658;1251;60003;-68
2023/11/05 07:25:50;;;;;;;24.20;21.80;;;;;;;8.49;100.00;96102.89;109345;1250;59856;-67
2023/11/05 07:28:16;;;;;;;25.30;22.60;;;;;;;8.56;100.00;96110.63;109707;1250;76684;-66
2023/11/05 07:30:43;;;;;;;25.00;22.10;;;;;;;8.61;100.00;96116.17;109685;1250;60073;-66
2023/11/05 07:33:12;;;;;;;25.00;22.30;;;;;;;8.63;100.00;96118.30;109676;1250;60063;-67
2023/11/05 07:35:39;;;;;;;23.70;21.30;;;;;;;8.64;100.00;96116.27;109316;1249;59888;-67
2023/11/05 07:38:08;;;;;;;29.40;26.20;;;;;;;8.65;100.00;96121.30;109715;1250;59833;-67
2023/11/05 07:40:35;;;;;;;25.80;23.20;;;;;;;8.65;100.00;96124.05;109742;1250;65750;-67
2023/11/05 07:43:02;;;;;;;28.00;25.20;;;;;;;8.65;100.00;96128.47;109710;1250;59785;-66
2023/11/05 07:45:28;;;;;;;29.00;25.50;;;;;;;8.65;100.00;96132.19;109692;1250;64187;-66
2023/11/05 07:47:55;;;;;;;29.90;26.60;;;;;;;8.65;100.00;96128.87;109418;1251;59814;-66
2023/11/05 07:50:23;;;;;;;30.90;27.90;;;;;;;8.65;100.00;96130.30;109650;1251;59752;-66
2023/11/05 07:52:49;;;;;;;28.50;25.60;;;;;;;8.65;100.00;96126.33;109675;1249;66876;-66
2023/11/05 07:55:16;;;;;;;28.60;25.60;;;;;;;8.67;100.00;96124.73;109677;1250;59878;-67
2023/11/05 07:57:43;;;;;;;29.20;25.70;;;;;;;8.70;100.00;96129.21;109649;1251;59806;-67
2023/11/05 08:00:15;;;;;;;29.30;26.40;;;;;;;8.73;100.00;96129.08;109666;1251;59814;-67
2023/11/05 08:02:42;;;;;;;29.30;26.00;;;;;;;8.74;100.00;96129.09;109670;1250;59830;-67
2023/11/05 08:05:08;;;;;;;28.70;25.60;;;;;;;8.74;100.00;96127.16;109659;1250;66565;-67
2023/11/05 08:07:35;;;;;;;30.30;27.00;;;;;;;8.74;100.00;96129.15;109539;1250;59780;-67
2023/11/05 08:10:02;;;;;;;30.50;27.30;;;;;;;8.75;100.00;96129.06;109679;1250;63842;-67
2023/11/05 08:12:33;;;;;;;30.30;27.00;;;;;;;8.76;100.00;96131.55;109665;1250;60065;-67
2023/11/05 08:14:59;;;;;;;33.60;30.20;;;;;;;8.77;100.00;96134.64;109661;1249;59843;-67
2023/11/05 08:17:26;;;;;;;40.60;36.10;;;;;;;8.78;100.00;96135.20;109705;1250;65600;-67
2023/11/05 08:19:52;;;;;;;44.00;38.30;;;;;;;8.79;100.00;96139.17;109676;1251;59791;-67
2023/11/05 08:22:19;;;;;;;51.70;42.20;;;;;;;8.81;100.00;96141.69;109671;1250;63722;-66
2023/11/05 08:24:46;;;;;;;44.20;38.00;;;;;;;8.82;100.00;96147.95;109637;1253;59747;-66
2023/11/05 08:27:12;;;;;;;53.70;44.50;;;;;;;8.83;100.00;96147.84;109708;1250;60579;-66
2023/11/05 08:29:39;;;;;;;53.50;45.50;;;;;;;8.84;100.00;96144.75;109705;1250;68089;-67
2023/11/05 08:32:09;;;;;;;39.00;34.00;;;;;;;8.85;100.00;96143.27;109657;1250;59871;-67
2023/11/05 08:34:36;;;;;;;38.00;33.40;;;;;;;8.86;100.00;96139.38;109668;1251;62545;-67
2023/11/05 08:37:02;;;;;;;32.30;29.10;;;;;;;8.87;100.00;96131.51;109687;1250;59744;-67
2023/11/05 08:39:30;;;;;;;36.00;30.00;;;;;;;8.87;100.00;96123.46;109530;1250;59688;-65
2023/11/05 08:41:57;;;;;;;34.20;30.50;;;;;;;8.88;100.00;96120.52;109533;1251;66627;-68
2023/11/05 08:44:23;;;;;;;35.90;32.00;;;;;;;8.90;100.00;96124.39;109721;1251;59816;-67
2023/11/05 08:46:51;;;;;;;33.40;27.40;;;;;;;8.92;100.00;96122.99;109406;1250;64153;-67
2023/11/05 08:49:18;;;;;;;30.00;26.30;;;;;;;8.94;100.00;96122.09;109639;1250;59804;-66
2023/11/05 08:51:45;;;;;;;26.10;23.40;;;;;;;8.96;100.00;96120.22;109702;1251;60146;-67
2023/11/05 08:54:12;;;;;;;27.40;24.60;;;;;;;9.00;100.00;96117.33;109656;1251;68002;-66
2023/11/05 08:56:39;;;;;;;24.40;21.80;;;;;;;9.06;100.00;96113.68;109728;1250;60025;-67
2023/11/05 08:59:05;;;;;;;23.30;20.80;;;;;;;9.12;100.00;96113.27;109499;1251;71970;-66
2023/11/05 09:01:32;;;;;;;92.90;76.10;;;;;;;9.15;100.00;96115.73;109650;1250;60020;-66
2023/11/05 09:03:59;;;;;;;101.70;85.70;;;;;;;9.17;100.00;96111.77;109707;1250;59842;-67
2023/11/05 09:06:25;;;;;;;116.40;101.40;;;;;;;9.19;100.00;96108.88;109675;1250;65450;-66
2023/11/05 09:08:53;;;;;;;71.10;63.70;;;;;;;9.23;100.00;96105.63;109385;1250;146595;-67
2023/11/05 09:11:21;;;;;;;52.30;46.40;;;;;;;9.28;100.00;96106.23;109163;1250;64100;-67
2023/11/05 09:13:48;;;;;;;60.20;54.30;;;;;;;9.31;100.00;96103.93;109547;1250;59805;-66
2023/11/05 09:16:15;;;;;;;64.40;55.30;;;;;;;9.34;100.00;96103.46;109691;1250;59800;-66
2023/11/05 09:18:42;;;;;;;76.90;68.80;;;;;;;9.37;100.00;96098.48;109681;1251;66602;-66
2023/11/05 09:21:09;;;;;;;61.70;55.10;;;;;;;9.41;100.00;96091.67;109636;1251;60136;-67
2023/11/05 09:23:35;;;;;;;37.10;33.10;;;;;;;9.44;100.00;96081.73;109669;1250;73826;-66
2023/11/05 09:26:02;;;;;;;24.80;22.20;;;;;;;9.48;100.00;96081.58;109690;1249;59782;-66
2023/11/05 09:28:29;;;;;;;11.80;10.30;;;;;;;9.52;100.00;96085.77;109845;1251;60005;-67
2023/11/05 09:30:56;;;;;;;19.00;17.20;;;;;;;9.54;100.00;96089.88;109835;1251;67211;-66
2023/11/05 09:33:22;;;;;;;13.70;12.10;;;;;;;9.55;100.00;96078.61;109833;1250;60084;-67
2023/11/05 09:35:49;;;;;;;19.60;17.70;;;;;;;9.57;100.00;96065.98;109820;1249;59846;-66
2023/11/05 09:38:16;;;;;;;24.10;21.80;;;;;;;9.62;100.00;96070.56;109836;1251;59827;-67
2023/11/05 09:40:44;;;;;;;17.70;15.90;;;;;;;9.69;100.00;96060.65;109819;1250;59795;-67
2023/11/05 09:43:10;;;;;;;17.30;15.60;;;;;;;9.75;100.00;96053.95;109821;1250;66515;-67
2023/11/05 09:45:37;;;;;;;21.10;17.50;;;;;;;9.79;100.00;96049.41;109567;1251;61477;-66
2023/11/05 09:48:13;;;;;;;19.70;17.70;;;;;;;9.83;100.00;96038.88;109856;1250;62589;-67
2023/11/05 09:50:41;;;;;;;16.50;14.00;;;;;;;9.85;100.00;96031.02;109785;1251;59883;-67
2023/11/05 09:53:15;;;;;;;15.20;13.40;;;;;;;9.84;100.00;96023.34;109875;1250;59680;-66
2023/11/05 09:55:45;;;;;;;17.20;14.10;;;;;;;9.79;100.00;96025.94;109586;1250;66624;-66
2023/11/05 09:58:15;;;;;;;18.70;15.80;;;;;;;9.75;100.00;96019.67;109840;1251;60057;-68
2023/11/05 10:00:41;;;;;;;;;;;;;;;9.74;100.00;96017.35;109565;1249;62768;-66
2023/11/05 10:03:10;;;;;;;18.30;14.90;;;;;;;9.68;100.00;96006.98;109627;1250;59759;-66
2023/11/05 10:05:42;;;;;;;18.30;16.30;;;;;;;9.64;100.00;96004.02;109858;1249;59953;-66
2023/11/05 10:08:09;;;;;;;17.50;14.90;;;;;;;9.66;100.00;96000.52;109830;1251;66858;-66
2023/11/05 10:10:38;;;;;;;18.70;15.20;;;;;;;9.67;100.00;96001.77;109850;1250;60121;-67
2023/11/05 10:13:05;;;;;;;20.50;16.30;;;;;;;9.68;100.00;96008.77;109530;1250;62540;-66
2023/11/05 10:15:37;;;;;;;17.70;15.90;;;;;;;9.71;100.00;96015.57;109834;1249;60127;-66
2023/11/05 10:18:05;;;;;;;20.50;18.20;;;;;;;9.73;100.00;96015.90;109580;1251;59773;-66
2023/11/05 10:20:32;;;;;;;18.90;17.00;;;;;;;9.72;100.00;96017.86;109825;1250;65541;-67
2023/11/05 10:23:06;;;;;;;16.70;15.00;;;;;;;9.71;100.00;96011.45;109841;1250;60146;-67
2023/11/05 10:25:36;;;;;;;13.90;12.60;;;;;;;9.70;100.00;96007.03;109827;1251;64400;-67
2023/11/05 10:28:03;;;;;;;13.70;12.30;;;;;;;9.71;100.00;96002.99;109798;1251;59747;-66
2023/11/05 10:30:33;;;;;;;15.10;13.40;;;;;;;9.73;100.00;96003.48;109837;1249;59765;-66
2023/11/05 10:33:00;;;;;;;14.90;13.40;;;;;;;9.73;100.00;96003.63;109817;1250;65317;-67
2023/11/05 10:35:32;;;;;;;14.30;12.80;;;;;;;9.72;100.00;95995.59;109553;1249;61378;-65
2023/11/05 10:37:59;;;;;;;13.00;11.10;;;;;;;9.73;100.00;95987.54;109856;1251;64053;-67
2023/11/05 10:40:25;;;;;;;12.00;10.50;;;;;;;9.74;100.00;95978.90;109786;1250;59825;-66
2023/11/05 10:42:52;;;;;;;10.80;9.70;;;;;;;9.74;100.00;95967.13;109790;1250;59744;-67
2023/11/05 10:45:22;;;;;;;13.60;12.10;;;;;;;9.74;100.00;95959.41;109579;1248;66827;-65
2023/11/05 10:47:52;;;;;;;14.40;13.00;;;;;;;9.72;100.00;95947.69;109857;1251;60307;-66
2023/11/05 10:50:23;;;;;;;15.90;14.10;;;;;;;9.68;100.00;95941.45;109773;1251;62517;-65
2023/11/05 10:52:53;;;;;;;14.60;13.20;;;;;;;9.63;100.00;95934.92;109813;1250;59789;-66
2023/11/05 10:55:30;;;;;;;16.20;13.80;;;;;;;9.59;100.00;95926.59;109599;1249;60012;-66
2023/11/05 10:57:57;;;;;;;15.60;13.80;;;;;;;9.60;100.00;95925.86;109829;1250;66685;-66
2023/11/05 11:00:26;;;;;;;12.50;11.10;;;;;;;9.61;100.00;95917.92;109827;1250;59842;-66
2023/11/05 11:02:54;;;;;;;11.70;9.40;;;;;;;9.62;100.00;95909.14;109796;1249;62823;-67
2023/11/05 11:05:41;;;;;;;11.30;10.20;;;;;;;9.63;100.00;95906.33;109782;1250;60118;-67
2023/11/05 11:08:15;;;;;;;12.80;10.50;;;;;;;9.65;100.00;95905.27;109833;1250;59911;-67
2023/11/05 11:10:45;;;;;;;16.10;14.50;;;;;;;9.68;100.00;95913.80;109800;1250;65805;-67